Time;durP1;ratioP1;P1;durP2;ratioP2;P2;SDS_P1;SDS_P2;PMS_P1;PMS_P2;Temp;Humidity;BMP_temperature;BMP_pressure;BME280_temperature;BME280_humidity;BME280_pressure;Samples;Min_cycle;Max_cycle;Signal;HPM_P1;HPM_P2
2022/07/14 00:01:14;;;;;;;4.40;1.90;;;;;;;22.79;51.21;99773.97;4985827;28;20496;-79
2022/07/14 00:03:40;;;;;;;1.90;1.60;;;;;;;22.78;51.11;99766.09;4986060;28;20472;-78
2022/07/14 00:06:05;;;;;;;2.77;1.50;;;;;;;22.71;50.86;99761.44;4987337;28;20603;-79
2022/07/14 00:08:31;;;;;;;6.30;1.90;;;;;;;22.69;50.39;99754.59;4985536;28;20204;-78
2022/07/14 00:10:56;;;;;;;2.10;1.73;;;;;;;22.67;50.45;99756.59;4984487;28;20669;-79
2022/07/14 00:13:22;;;;;;;2.00;1.60;;;;;;;22.65;50.12;99748.72;4991447;28;20243;-78
2022/07/14 00:15:47;;;;;;;2.33;1.57;;;;;;;22.69;50.37;99746.56;4987050;28;20207;-79
2022/07/14 00:18:12;;;;;;;2.17;1.90;;;;;;;22.73;49.85;99739.84;4989996;28;20217;-79
2022/07/14 00:20:38;;;;;;;2.27;1.73;;;;;;;22.76;49.69;99731.44;4989128;28;20228;-79
2022/07/14 00:23:03;;;;;;;2.27;1.40;;;;;;;22.78;49.68;99733.97;4991391;28;20222;-79
2022/07/14 00:25:29;;;;;;;1.53;1.43;;;;;;;22.78;49.44;99732.13;4990890;28;20318;-79
2022/07/14 00:27:55;;;;;;;5.73;1.50;;;;;;;22.77;49.04;99729.63;4992127;28;20223;-79
2022/07/14 00:30:21;;;;;;;3.63;1.60;;;;;;;22.78;48.44;99740.16;4973396;28;20207;-79
2022/07/14 00:32:46;;;;;;;3.47;1.50;;;;;;;22.85;48.18;99748.34;4991247;28;20488;-78
2022/07/14 00:35:14;;;;;;;2.17;1.30;;;;;;;22.81;48.26;99761.22;4989524;28;20232;-79
2022/07/14 00:37:40;;;;;;;2.40;1.63;;;;;;;22.78;48.80;99758.91;4991562;28;20504;-79
2022/07/14 00:40:07;;;;;;;8.93;1.93;;;;;;;22.79;48.83;99757.06;4990727;28;20502;-79
2022/07/14 00:42:39;;;;;;;2.00;1.40;;;;;;;22.78;49.23;99755.38;4990610;28;20266;-79
2022/07/14 00:45:09;;;;;;;2.10;1.50;;;;;;;22.72;49.54;99751.56;4987202;28;20467;-79
2022/07/14 00:47:35;;;;;;;1.40;1.30;;;;;;;22.65;50.26;99762.09;4986698;28;20676;-79
2022/07/14 00:50:01;;;;;;;1.50;1.40;;;;;;;22.58;50.63;99753.13;4975174;28;20544;-79
2022/07/14 00:52:28;;;;;;;2.70;1.50;;;;;;;22.52;50.73;99751.09;4967396;28;20209;-79
2022/07/14 00:54:54;;;;;;;1.43;1.33;;;;;;;22.41;51.20;99746.13;5000182;23;21499;-79
2022/07/14 00:57:20;;;;;;;1.43;1.33;;;;;;;22.28;51.38;99747.50;4967095;28;20978;-80
2022/07/14 00:59:47;;;;;;;3.20;1.70;;;;;;;22.21;51.73;99738.47;4988058;28;20550;-79
2022/07/14 01:02:13;;;;;;;3.30;1.60;;;;;;;22.16;51.78;99731.91;4990561;28;20539;-80
2022/07/14 01:04:39;;;;;;;2.07;1.30;;;;;;;22.12;52.03;99736.78;4987147;28;20459;-80
2022/07/14 01:07:04;;;;;;;1.60;1.50;;;;;;;22.05;52.63;99733.09;4989367;28;20450;-80
2022/07/14 01:09:30;;;;;;;2.37;1.70;;;;;;;21.98;52.69;99743.66;4989017;28;20307;-79
2022/07/14 01:11:57;;;;;;;2.60;1.47;;;;;;;21.89;52.77;99733.94;4972605;28;20212;-79
2022/07/14 01:14:24;;;;;;;3.57;2.30;;;;;;;21.78;53.18;99737.78;4973497;28;20481;-80
2022/07/14 01:16:55;;;;;;;1.93;1.73;;;;;;;21.71;53.40;99742.16;4986947;28;20886;-79
2022/07/14 01:19:21;;;;;;;4.90;1.70;;;;;;;21.63;53.40;99731.44;4989378;28;20209;-80
2022/07/14 01:21:55;;;;;;;2.23;1.43;;;;;;;21.55;53.33;99734.94;4971037;28;20468;-80
2022/07/14 01:24:22;;;;;;;1.83;1.73;;;;;;;21.52;53.36;99737.94;4971684;28;20866;-80
2022/07/14 01:26:48;;;;;;;1.80;1.50;;;;;;;21.49;53.43;99738.25;4970033;28;20454;-80
2022/07/14 01:29:13;;;;;;;4.30;1.30;;;;;;;21.39;53.46;99738.44;4970852;28;20686;-80
2022/07/14 01:31:39;;;;;;;1.70;1.60;;;;;;;21.32;53.71;99739.22;4990090;28;20476;-79
2022/07/14 01:34:05;;;;;;;2.33;1.80;;;;;;;21.28;53.69;99730.69;4986905;28;20276;-79
2022/07/14 01:36:30;;;;;;;1.50;1.33;;;;;;;21.26;53.53;99722.00;4988327;28;20480;-80
2022/07/14 01:38:57;;;;;;;2.30;1.43;;;;;;;21.21;53.76;99729.66;4988126;28;20209;-80
2022/07/14 01:41:23;;;;;;;2.50;1.37;;;;;;;21.14;54.12;99725.97;4990837;28;20201;-80
2022/07/14 01:43:49;;;;;;;2.27;1.43;;;;;;;21.06;54.44;99731.28;4973494;28;20821;-80
2022/07/14 01:46:14;;;;;;;2.10;1.63;;;;;;;20.99;54.53;99725.75;4987421;28;20491;-80
2022/07/14 01:48:40;;;;;;;3.17;1.70;;;;;;;20.99;54.64;99729.25;4970051;28;21254;-80
2022/07/14 01:51:05;;;;;;;1.50;1.27;;;;;;;20.96;54.74;99729.59;4972419;28;20208;-80
2022/07/14 01:53:31;;;;;;;3.00;1.70;;;;;;;20.95;54.97;99727.94;4970153;28;20217;-79
2022/07/14 01:55:58;;;;;;;5.70;1.60;;;;;;;20.90;55.16;99722.22;4972317;28;20538;-79
2022/07/14 01:58:24;;;;;;;3.00;1.47;;;;;;;20.89;55.11;99728.56;4972333;28;20456;-79
2022/07/14 02:03:35;;;;;;;1.90;1.80;;;;;;;20.90;55.18;99730.25;4969035;28;20459;-79
2022/07/14 02:06:02;;;;;;;2.00;1.83;;;;;;;20.90;55.12;99732.91;4969803;28;20266;-79
2022/07/14 02:08:28;;;;;;;2.23;2.03;;;;;;;20.87;55.45;99733.22;4968627;28;20233;-79
2022/07/14 02:13:39;;;;;;;1.60;1.40;;;;;;;20.88;55.37;99739.41;4975911;28;20706;-79
2022/07/14 02:16:08;;;;;;;2.07;1.70;;;;;;;20.88;55.58;99736.75;4977479;28;20471;-79
2022/07/14 02:18:34;;;;;;;1.63;1.53;;;;;;;20.90;55.50;99740.94;4972172;28;21315;-80
2022/07/14 02:21:00;;;;;;;3.47;1.93;;;;;;;20.89;55.63;99736.56;4973739;28;20464;-80
2022/07/14 02:23:25;;;;;;;1.50;1.40;;;;;;;20.86;55.76;99728.03;4988490;28;20456;-80
2022/07/14 02:25:50;;;;;;;1.93;1.30;;;;;;;20.83;56.12;99725.69;4969632;28;20234;-79
2022/07/14 02:28:16;;;;;;;1.70;1.60;;;;;;;20.76;56.50;99728.16;4982397;28;20205;-80
2022/07/14 02:30:43;;;;;;;2.00;1.80;;;;;;;20.71;56.64;99734.00;4968775;28;20197;-80
2022/07/14 02:33:09;;;;;;;2.50;1.77;;;;;;;20.70;56.84;99729.66;4970383;28;20490;-79
2022/07/14 02:35:35;;;;;;;2.10;1.87;;;;;;;20.67;56.88;99726.47;4982304;28;20209;-80
2022/07/14 02:38:00;;;;;;;1.77;1.47;;;;;;;20.58;57.38;99728.25;4966323;28;20204;-80
2022/07/14 02:40:26;;;;;;;2.47;1.57;;;;;;;20.49;57.64;99724.66;4969251;28;20459;-80
2022/07/14 02:42:51;;;;;;;3.83;1.70;;;;;;;20.43;57.86;99719.97;4988008;28;20252;-79
2022/07/14 02:45:17;;;;;;;3.90;1.97;;;;;;;20.36;58.35;99712.75;4968906;28;20225;-79
2022/07/14 02:47:43;;;;;;;1.90;1.80;;;;;;;20.35;58.49;99714.59;4970779;28;20268;-79
2022/07/14 02:50:10;;;;;;;2.00;1.80;;;;;;;20.33;58.49;99713.91;4986116;28;20724;-80
2022/07/14 02:52:38;;;;;;;1.70;1.60;;;;;;;20.32;58.32;99717.56;4969414;28;20650;-80
2022/07/14 02:55:04;;;;;;;1.57;1.47;;;;;;;20.24;58.93;99714.84;4967526;28;20457;-80
2022/07/14 02:57:32;;;;;;;1.83;1.73;;;;;;;20.18;59.11;99711.00;4984705;28;20479;-79
2022/07/14 02:59:58;;;;;;;2.13;1.90;;;;;;;20.22;59.03;99712.34;4974327;28;20587;-79
2022/07/14 03:02:24;;;;;;;4.10;1.90;;;;;;;20.23;58.68;99708.69;4971834;28;20506;-80
2022/07/14 03:04:51;;;;;;;2.23;1.80;;;;;;;20.23;58.27;99708.69;4970112;28;20221;-79
2022/07/14 03:07:16;;;;;;;1.63;1.43;;;;;;;20.29;57.90;99720.56;4987131;28;20460;-79
2022/07/14 03:09:42;;;;;;;3.07;2.63;;;;;;;20.27;57.89;99711.88;4984384;28;20221;-80
2022/07/14 03:12:07;;;;;;;2.10;1.90;;;;;;;20.19;57.90;99698.47;4969596;28;20208;-79
2022/07/14 03:14:36;;;;;;;1.40;1.30;;;;;;;20.12;58.00;99700.97;4970288;28;20222;-79
2022/07/14 03:17:02;;;;;;;1.83;1.43;;;;;;;20.15;57.89;99710.47;4969712;28;20567;-79
2022/07/14 03:19:27;;;;;;;2.03;1.70;;;;;;;20.16;57.71;99709.47;4969832;28;20232;-79
2022/07/14 03:21:53;;;;;;;2.60;2.13;;;;;;;20.16;57.41;99706.81;4969439;28;20233;-79
2022/07/14 03:24:20;;;;;;;1.67;1.50;;;;;;;20.17;57.31;99717.34;4970724;28;20238;-79
2022/07/14 03:26:47;;;;;;;1.60;1.50;;;;;;;20.18;57.14;99711.00;4969299;28;20205;-80
2022/07/14 03:29:12;;;;;;;1.93;1.60;;;;;;;20.22;56.94;99716.84;4969590;28;20448;-79
2022/07/14 03:31:38;;;;;;;2.47;1.63;;;;;;;20.23;56.86;99707.84;4967999;28;21017;-80
2022/07/14 03:34:07;;;;;;;2.20;1.67;;;;;;;20.26;56.97;99713.72;4968835;28;20518;-80
2022/07/14 03:36:36;;;;;;;1.97;1.57;;;;;;;20.22;57.13;99712.34;4962771;28;20200;-79
2022/07/14 03:39:03;;;;;;;3.83;2.13;;;;;;;20.13;57.17;99702.63;4962368;28;20553;-80
2022/07/14 03:41:29;;;;;;;4.40;1.67;;;;;;;20.00;57.44;99705.69;4963003;28;20247;-80
2022/07/14 03:43:55;;;;;;;2.47;2.27;;;;;;;19.97;57.63;99706.00;4962899;28;20460;-79
2022/07/14 03:46:20;;;;;;;3.33;1.60;;;;;;;20.04;57.34;99706.22;4962679;28;20228;-79
2022/07/14 03:48:56;;;;;;;2.07;1.80;;;;;;;20.06;57.13;99705.09;4961860;28;21067;-79
2022/07/14 03:51:21;;;;;;;1.80;1.70;;;;;;;20.11;57.20;99710.75;4962212;28;20550;-77
2022/07/14 03:53:47;;;;;;;2.80;1.50;;;;;;;20.11;57.12;99710.75;4963665;28;20229;-79
2022/07/14 03:56:13;;;;;;;4.10;1.53;;;;;;;20.07;57.29;99709.41;4978063;28;20892;-79
2022/07/14 03:58:43;;;;;;;1.60;1.40;;;;;;;20.08;57.28;99711.06;4960682;28;20200;-79
2022/07/14 04:01:09;;;;;;;4.00;2.30;;;;;;;20.11;57.18;99705.44;4961620;28;20463;-79
2022/07/14 04:03:34;;;;;;;2.50;2.30;;;;;;;20.16;57.13;99709.47;4961721;28;20497;-80
2022/07/14 04:06:00;;;;;;;1.90;1.30;;;;;;;20.16;57.00;99702.31;4961561;28;20306;-80
2022/07/14 04:08:26;;;;;;;2.40;1.87;;;;;;;20.22;56.84;99700.84;4963262;28;20212;-79
2022/07/14 04:10:57;;;;;;;2.03;1.70;;;;;;;20.30;56.66;99703.53;4962115;28;20522;-79
2022/07/14 04:13:22;;;;;;;2.27;2.00;;;;;;;20.37;56.52;99703.78;4962096;28;20555;-79
2022/07/14 04:15:48;;;;;;;2.57;1.70;;;;;;;20.38;56.76;99705.44;4983825;28;20232;-79
2022/07/14 04:18:13;;;;;;;2.20;1.73;;;;;;;20.28;57.05;99708.19;4965864;28;20210;-79
2022/07/14 04:20:39;;;;;;;1.90;1.80;;;;;;;20.16;57.38;99710.31;4965059;28;20840;-79
2022/07/14 04:23:05;;;;;;;2.90;1.50;;;;;;;20.01;57.81;99702.06;4962470;28;20653;-79
2022/07/14 04:25:31;;;;;;;3.00;1.57;;;;;;;19.92;58.30;99700.31;4962486;28;20482;-79
2022/07/14 04:27:56;;;;;;;2.57;1.37;;;;;;;19.86;58.52;99703.59;4960265;28;21311;-79
2022/07/14 04:30:21;;;;;;;1.60;1.50;;;;;;;19.89;58.55;99708.63;4961193;28;20200;-79
2022/07/14 04:32:47;;;;;;;1.90;1.60;;;;;;;19.90;58.72;99702.28;4976059;28;20499;-79
2022/07/14 04:35:15;;;;;;;3.70;2.03;;;;;;;19.91;58.62;99687.97;4956942;28;20279;-79
2022/07/14 04:37:40;;;;;;;3.00;1.90;;;;;;;19.95;58.38;99686.66;4960590;28;20462;-79
2022/07/14 04:40:18;;;;;;;2.53;1.70;;;;;;;20.02;58.21;99679.72;4961762;28;20296;-79
2022/07/14 04:42:43;;;;;;;1.90;1.80;;;;;;;20.07;57.90;99688.09;4958841;28;20493;-79
2022/07/14 04:45:10;;;;;;;2.57;1.87;;;;;;;20.14;58.03;99690.94;4957360;28;21106;-79
2022/07/14 04:47:36;;;;;;;1.73;1.63;;;;;;;20.21;57.97;99693.84;4960535;28;20550;-79
2022/07/14 04:52:48;;;;;;;1.63;1.43;;;;;;;20.37;57.50;99690.44;4967816;28;20224;-79
2022/07/14 04:55:34;;;;;;;2.40;1.70;;;;;;;20.62;56.79;99692.25;4976643;28;20499;-79
2022/07/14 04:58:11;;;;;;;2.03;1.70;;;;;;;21.04;55.51;99685.22;4963071;28;20454;-79
2022/07/14 05:00:37;;;;;;;1.93;1.43;;;;;;;22.53;51.18;99684.03;4960693;28;21031;-79
2022/07/14 05:03:03;;;;;;;2.58;2.10;;;;;;;24.29;46.93;99683.31;4961488;28;20484;-79
2022/07/14 05:05:29;;;;;;;6.40;2.30;;;;;;;25.82;43.38;99672.47;4965649;28;20277;-79
2022/07/14 05:07:54;;;;;;;3.20;2.30;;;;;;;27.10;40.17;99674.84;4964081;28;20202;-80
2022/07/14 05:10:25;;;;;;;3.33;3.00;;;;;;;28.20;37.89;99675.38;4966620;28;20197;-80
2022/07/14 05:12:50;;;;;;;3.93;2.07;;;;;;;29.02;35.89;99683.84;4966306;28;20581;-80
2022/07/14 05:15:16;;;;;;;2.70;2.30;;;;;;;29.71;34.44;99688.44;4959796;28;20299;-79
2022/07/14 05:17:43;;;;;;;2.67;2.47;;;;;;;30.42;33.11;99679.03;4966160;28;20200;-77
2022/07/14 05:20:11;;;;;;;2.43;1.83;;;;;;;30.88;31.54;99676.84;4965284;28;20547;-77
2022/07/14 05:22:38;;;;;;;1.60;1.50;;;;;;;31.40;30.24;99663.59;4965287;28;20823;-77
2022/07/14 05:25:12;;;;;;;3.10;2.10;;;;;;;31.87;29.59;99666.38;4967170;28;20468;-78
2022/07/14 05:27:39;;;;;;;1.90;1.27;;;;;;;32.31;28.98;99666.84;4966001;28;20535;-77
2022/07/14 05:30:08;;;;;;;2.00;1.50;;;;;;;32.73;28.08;99665.84;4943925;28;20563;-78
2022/07/14 05:32:36;;;;;;;2.20;1.33;;;;;;;33.10;27.52;99671.75;4974474;28;20848;-78
2022/07/14 05:35:05;;;;;;;4.03;1.70;;;;;;;33.47;26.85;99665.88;4972019;28;20642;-78
2022/07/14 05:37:30;;;;;;;3.10;2.47;;;;;;;33.82;26.25;99668.38;4962678;28;20506;-78
2022/07/14 05:39:56;;;;;;;2.37;1.70;;;;;;;34.26;25.51;99663.03;4961602;28;20555;-79
2022/07/14 05:42:22;;;;;;;1.70;1.60;;;;;;;34.75;25.02;99667.78;4978690;28;20272;-78
2022/07/14 05:44:49;;;;;;;1.70;1.60;;;;;;;35.21;24.38;99660.94;4962486;28;20216;-79
2022/07/14 05:47:15;;;;;;;2.90;1.90;;;;;;;35.62;23.90;99665.94;4960968;28;20483;-79
2022/07/14 05:49:42;;;;;;;5.13;1.80;;;;;;;35.86;23.88;99663.66;4963530;28;20292;-79
2022/07/14 05:52:10;;;;;;;2.47;1.73;;;;;;;36.08;23.19;99660.84;4985510;28;20857;-79
2022/07/14 05:54:36;;;;;;;2.13;1.80;;;;;;;36.39;22.76;99666.47;4961516;28;20496;-79
2022/07/14 05:57:03;;;;;;;2.43;1.63;;;;;;;36.81;22.14;99668.28;4962092;28;20523;-78
2022/07/14 05:59:28;;;;;;;1.40;1.30;;;;;;;37.14;21.59;99667.88;4963421;28;20490;-79
2022/07/14 06:01:54;;;;;;;2.30;1.70;;;;;;;36.76;21.67;99669.94;4965513;28;20511;-78
2022/07/14 06:04:20;;;;;;;5.07;1.40;;;;;;;36.04;22.09;99671.44;4961277;28;20248;-79
2022/07/14 06:06:46;;;;;;;2.43;1.70;;;;;;;35.62;22.29;99663.22;4962802;28;20300;-80
2022/07/14 06:09:12;;;;;;;3.00;1.93;;;;;;;35.24;22.64;99660.44;4964145;28;21111;-78
2022/07/14 06:11:40;;;;;;;1.87;1.77;;;;;;;34.39;23.70;99650.94;4982814;28;20436;-79
2022/07/14 06:14:07;;;;;;;2.83;1.53;;;;;;;33.47;24.76;99649.53;4963497;28;20531;-79
2022/07/14 06:16:35;;;;;;;2.30;1.67;;;;;;;33.50;24.22;99655.31;4961515;28;20795;-78
2022/07/14 06:19:01;;;;;;;2.80;1.70;;;;;;;33.21;24.40;99662.69;4958317;28;20489;-79
2022/07/14 06:21:27;;;;;;;2.07;1.80;;;;;;;32.87;24.54;99656.34;4957064;28;20518;-79
2022/07/14 06:23:52;;;;;;;3.03;1.47;;;;;;;32.84;24.78;99660.38;4944941;28;20194;-79
2022/07/14 06:26:17;;;;;;;4.77;1.83;;;;;;;32.89;24.80;99662.34;4961450;28;20308;-79
2022/07/14 06:28:46;;;;;;;3.10;1.90;;;;;;;33.64;24.12;99655.00;4945686;28;20206;-79
2022/07/14 06:31:13;;;;;;;2.00;1.50;;;;;;;34.80;22.67;99651.47;4956148;28;20453;-80
2022/07/14 06:33:39;;;;;;;3.30;1.50;;;;;;;35.64;21.40;99639.19;4957010;28;20485;-84
2022/07/14 06:36:20;;;;;;;2.93;1.60;;;;;;;36.40;20.80;99643.50;4957661;28;20520;-83
2022/07/14 06:38:46;;;;;;;2.70;2.33;;;;;;;37.14;20.23;99642.41;4947652;28;20455;-84
2022/07/14 06:41:11;;;;;;;5.57;3.13;;;;;;;37.57;19.85;99638.31;4960541;28;20522;-80
2022/07/14 06:43:42;;;;;;;4.50;2.90;;;;;;;37.78;19.66;99643.75;4948401;28;20202;-82
2022/07/14 06:46:13;;;;;;;3.00;2.57;;;;;;;37.66;19.81;99646.81;4970269;28;20498;-80
2022/07/14 06:48:38;;;;;;;4.40;3.10;;;;;;;37.64;19.95;99654.47;4963070;28;20202;-81
2022/07/14 06:51:07;;;;;;;3.20;2.47;;;;;;;37.80;19.80;99639.66;4955739;28;20457;-81
2022/07/14 06:53:33;;;;;;;8.30;3.13;;;;;;;37.82;19.51;99639.38;4952880;28;20214;-84
2022/07/14 06:55:58;;;;;;;4.33;3.03;;;;;;;37.30;19.96;99644.06;5003862;23;20464;-76
2022/07/14 06:58:24;;;;;;;3.03;2.80;;;;;;;37.58;19.89;99634.47;4968527;28;20255;-76
2022/07/14 07:00:49;;;;;;;4.70;3.23;;;;;;;38.12;19.03;99638.53;4982389;28;20359;-78
2022/07/14 07:03:15;;;;;;;4.13;2.10;;;;;;;38.35;18.96;99637.06;4977599;28;20228;-76
2022/07/14 07:08:25;;;;;;;3.33;1.80;;;;;;;37.75;18.99;99638.84;4971010;28;20208;-77
2022/07/14 07:10:51;;;;;;;2.93;1.80;;;;;;;37.91;18.85;99640.44;4973857;28;20460;-78
2022/07/14 07:13:16;;;;;;;1.60;1.50;;;;;;;38.11;18.57;99641.56;4960680;28;20461;-77
2022/07/14 07:15:42;;;;;;;2.63;1.83;;;;;;;38.26;17.70;99636.00;4967495;28;20573;-77
2022/07/14 07:18:08;;;;;;;3.43;1.63;;;;;;;38.44;17.52;99629.91;4966504;28;20213;-78
2022/07/14 07:20:35;;;;;;;5.57;1.90;;;;;;;38.20;17.06;99628.91;4967918;28;20216;-77
2022/07/14 07:23:01;;;;;;;2.33;1.67;;;;;;;38.05;16.76;99636.09;4963294;28;20470;-76
2022/07/14 07:25:27;;;;;;;2.17;1.53;;;;;;;38.04;16.81;99631.69;4966339;28;21235;-78
2022/07/14 07:27:52;;;;;;;1.43;1.33;;;;;;;37.96;16.83;99634.19;4954003;28;20489;-76
2022/07/14 07:30:18;;;;;;;3.87;1.73;;;;;;;38.32;16.75;99642.28;4964198;28;20210;-78
2022/07/14 07:32:44;;;;;;;2.80;1.60;;;;;;;38.78;16.32;99634.69;4962911;28;20891;-77
2022/07/14 07:35:09;;;;;;;4.20;1.67;;;;;;;38.99;16.44;99634.59;4959215;28;20244;-78
2022/07/14 07:37:37;;;;;;;3.70;2.10;;;;;;;38.91;16.48;99636.00;4963802;28;20563;-78
2022/07/14 07:40:03;;;;;;;3.10;1.50;;;;;;;38.88;16.79;99631.91;4967085;28;20500;-78
2022/07/14 07:42:28;;;;;;;1.83;1.60;;;;;;;38.43;17.09;99636.53;4963892;28;20489;-76
2022/07/14 07:44:55;;;;;;;2.73;1.60;;;;;;;37.33;18.16;99638.03;4961728;28;20467;-78
2022/07/14 07:47:22;;;;;;;3.10;2.13;;;;;;;36.66;19.08;99625.28;4966414;28;20874;-78
2022/07/14 07:49:47;;;;;;;1.50;1.40;;;;;;;36.64;19.34;99627.47;4965561;28;20892;-77
2022/07/14 07:52:13;;;;;;;2.20;1.77;;;;;;;36.59;19.61;99621.97;4964210;28;20485;-76
2022/07/14 07:54:38;;;;;;;2.50;2.30;;;;;;;36.77;19.54;99624.22;4962688;28;20575;-76
2022/07/14 07:57:04;;;;;;;2.20;2.00;;;;;;;37.24;19.32;99625.13;4964874;28;20273;-78
2022/07/14 07:59:29;;;;;;;2.10;1.90;;;;;;;37.70;18.99;99619.66;4966434;28;20260;-78
2022/07/14 08:01:55;;;;;;;2.20;1.50;;;;;;;38.27;18.47;99618.44;4973831;28;20457;-77
2022/07/14 08:04:20;;;;;;;4.50;1.60;;;;;;;38.58;17.98;99618.34;4958007;28;20194;-77
2022/07/14 08:06:46;;;;;;;1.90;1.50;;;;;;;38.90;17.83;99612.41;4964305;28;20230;-77
2022/07/14 08:09:12;;;;;;;2.03;1.67;;;;;;;38.90;17.69;99604.97;4966059;28;20216;-77
2022/07/14 08:11:42;;;;;;;4.53;1.70;;;;;;;38.45;18.00;99606.84;4967549;28;20220;-78
2022/07/14 08:14:47;;;;;;;1.60;1.50;;;;;;;38.45;18.16;99606.84;4963251;28;20278;-77
2022/07/14 08:16:58;;;;;;;3.20;1.77;;;;;;;38.73;17.66;99596.28;4958848;28;20502;-77
2022/07/14 08:19:23;;;;;;;1.67;1.50;;;;;;;39.09;17.74;99596.06;4967065;28;20463;-76
2022/07/14 08:21:49;;;;;;;2.23;1.60;;;;;;;39.42;17.33;99599.09;4967300;28;20485;-78
2022/07/14 08:24:15;;;;;;;2.20;1.40;;;;;;;39.52;16.97;99590.78;4968378;28;20806;-78
2022/07/14 08:26:41;;;;;;;1.43;1.33;;;;;;;39.55;17.05;99587.44;4962915;28;20483;-77
2022/07/14 08:29:07;;;;;;;3.87;1.60;;;;;;;39.00;17.38;99589.56;4966457;28;20225;-78
2022/07/14 08:31:33;;;;;;;1.80;1.70;;;;;;;38.33;18.13;99589.06;4967619;28;20685;-77
2022/07/14 08:33:58;;;;;;;1.87;1.50;;;;;;;37.90;18.76;99586.72;4962723;28;20473;-76
2022/07/14 08:36:24;;;;;;;1.63;1.40;;;;;;;37.24;19.21;99586.78;4962364;28;20817;-77
2022/07/14 08:38:49;;;;;;;1.47;1.37;;;;;;;36.26;19.97;99583.81;4973343;28;20248;-76
2022/07/14 08:41:14;;;;;;;2.93;2.23;;;;;;;35.60;20.88;99583.44;4983744;28;20208;-78
2022/07/14 08:43:40;;;;;;;4.47;3.27;;;;;;;35.19;21.66;99588.56;4982397;28;20686;-77
2022/07/14 08:46:06;;;;;;;1.80;1.50;;;;;;;35.02;21.98;99584.00;4987127;28;20236;-78
2022/07/14 08:48:32;;;;;;;1.60;1.50;;;;;;;34.97;21.97;99583.97;4969628;28;20213;-78
2022/07/14 08:50:58;;;;;;;4.43;2.90;;;;;;;35.02;21.88;99572.25;4988300;28;20208;-78
2022/07/14 08:53:26;;;;;;;8.83;7.60;;;;;;;35.21;21.76;99573.56;4989909;28;20458;-76
2022/07/14 08:55:52;;;;;;;2.80;2.43;;;;;;;35.33;21.43;99570.66;4989846;28;20822;-77
2022/07/14 08:58:17;;;;;;;1.60;1.50;;;;;;;35.44;21.68;99571.56;4991770;28;20970;-78
2022/07/14 09:00:43;;;;;;;1.90;1.80;;;;;;;35.42;21.54;99570.97;4986042;28;20584;-76
2022/07/14 09:03:09;;;;;;;1.70;1.60;;;;;;;35.45;21.59;99560.34;4989014;28;20213;-76
2022/07/14 09:05:41;;;;;;;6.47;3.80;;;;;;;35.52;21.07;99567.50;4986405;28;20293;-80
2022/07/14 09:08:07;;;;;;;3.37;1.60;;;;;;;35.51;21.67;99574.03;4989138;28;21130;-78
2022/07/14 09:10:32;;;;;;;3.10;2.27;;;;;;;35.36;21.85;99564.66;4988140;28;20487;-77
2022/07/14 09:13:18;;;;;;;2.47;1.73;;;;;;;35.51;21.27;99563.13;4986550;28;20821;-78
2022/07/14 09:15:44;;;;;;;1.73;1.30;;;;;;;35.49;20.92;99568.03;4989119;28;20590;-77
2022/07/14 09:18:17;;;;;;;1.67;1.30;;;;;;;35.58;20.64;99556.38;4985817;28;20475;-77
2022/07/14 09:20:43;;;;;;;3.20;1.30;;;;;;;35.68;20.68;99553.72;4986964;28;20460;-77
2022/07/14 09:23:09;;;;;;;2.10;1.50;;;;;;;35.68;20.39;99552.88;4952998;28;20465;-76
2022/07/14 09:25:34;;;;;;;6.00;1.30;;;;;;;35.64;20.18;99557.22;4985014;28;20197;-77
2022/07/14 09:28:00;;;;;;;1.90;1.40;;;;;;;35.76;20.69;99555.13;4987483;28;20547;-78
2022/07/14 09:30:26;;;;;;;1.83;1.47;;;;;;;35.88;20.00;99550.25;4986186;28;20566;-78
2022/07/14 09:32:58;;;;;;;2.70;1.40;;;;;;;36.05;19.68;99554.69;4984828;28;20257;-77
2022/07/14 09:35:41;;;;;;;1.77;1.40;;;;;;;36.29;19.14;99547.72;5001933;28;20324;-77
2022/07/14 09:38:17;;;;;;;2.70;1.73;;;;;;;36.24;19.21;99546.88;4995482;28;20447;-78
2022/07/14 09:40:43;;;;;;;1.70;1.40;;;;;;;36.31;19.20;99551.00;4992348;28;20444;-78
2022/07/14 09:43:12;;;;;;;1.97;1.63;;;;;;;36.37;19.12;99537.34;4984991;28;20475;-78
2022/07/14 09:45:41;;;;;;;2.30;2.03;;;;;;;36.48;19.18;99533.53;4985033;28;20531;-77
2022/07/14 09:48:07;;;;;;;1.83;1.40;;;;;;;36.73;19.07;99539.09;4989111;28;20464;-77
2022/07/14 09:50:48;;;;;;;3.27;1.10;;;;;;;36.85;18.10;99536.09;4990161;28;20848;-77
2022/07/14 09:53:28;;;;;;;4.30;1.70;;;;;;;36.82;17.66;99530.34;4986229;28;20530;-77
2022/07/14 09:56:03;;;;;;;1.70;1.60;;;;;;;36.87;17.53;99531.16;4987320;28;20468;-76
2022/07/14 09:58:40;;;;;;;1.73;1.53;;;;;;;36.91;17.72;99526.78;4970626;28;20479;-77
2022/07/14 10:01:11;;;;;;;1.90;1.37;;;;;;;36.93;17.41;99519.13;4969049;28;20474;-77
2022/07/14 10:03:40;;;;;;;1.80;1.70;;;;;;;37.04;17.14;99519.16;4979686;28;20449;-78
2022/07/14 10:06:06;;;;;;;2.13;1.70;;;;;;;36.99;16.72;99517.19;4985286;28;20578;-78
2022/07/14 10:08:34;;;;;;;2.30;1.57;;;;;;;36.91;17.04;99512.28;4983311;28;20528;-76
2022/07/14 10:11:02;;;;;;;1.87;1.30;;;;;;;36.88;17.40;99501.88;4990108;28;20521;-77
2022/07/14 10:13:28;;;;;;;1.30;1.20;;;;;;;36.87;17.36;99497.50;4971175;28;20900;-77
2022/07/14 10:15:54;;;;;;;1.93;1.10;;;;;;;36.97;17.46;99497.47;4989440;28;20558;-77
2022/07/14 10:18:22;;;;;;;1.60;1.30;;;;;;;37.28;17.10;99497.50;4987397;28;20273;-78
2022/07/14 10:20:51;;;;;;;1.63;1.50;;;;;;;37.24;16.64;99502.72;4986388;28;20491;-77
2022/07/14 10:23:18;;;;;;;2.90;1.60;;;;;;;37.35;16.65;99489.81;4985598;28;20444;-77
2022/07/14 10:25:51;;;;;;;3.13;1.30;;;;;;;37.34;16.71;99488.97;4974021;28;20794;-78
2022/07/14 10:28:18;;;;;;;1.70;1.20;;;;;;;37.44;16.62;99479.94;4984482;28;20460;-78
2022/07/14 10:30:59;;;;;;;3.80;1.40;;;;;;;37.51;16.28;99477.75;4970116;28;21075;-77
2022/07/14 10:33:57;;;;;;;3.10;1.40;;;;;;;37.68;15.78;99473.88;4978305;28;20464;-77
2022/07/14 10:36:32;;;;;;;2.37;1.70;;;;;;;37.46;16.17;99475.00;4988006;28;20574;-77
2022/07/14 10:39:27;;;;;;;3.53;1.20;;;;;;;37.56;15.92;99472.22;4988313;28;20463;-79
2022/07/14 10:42:00;;;;;;;2.77;1.40;;;;;;;37.61;16.52;99466.75;4989544;28;20771;-78
2022/07/14 10:44:30;;;;;;;1.87;1.30;;;;;;;37.66;16.45;99459.59;4989684;28;20476;-79
2022/07/14 10:47:41;;;;;;;2.00;1.40;;;;;;;37.76;16.59;99454.09;4973093;28;20484;-77
2022/07/14 10:50:12;;;;;;;3.20;1.40;;;;;;;37.70;16.39;99450.56;4981537;28;20481;-77
2022/07/14 10:53:03;;;;;;;3.47;1.40;;;;;;;37.61;16.48;99450.28;4987256;28;20961;-77
2022/07/14 10:55:28;;;;;;;1.70;1.20;;;;;;;37.73;16.40;99440.94;4984285;28;20635;-78
2022/07/14 10:58:04;;;;;;;4.73;1.50;;;;;;;37.83;16.48;99444.47;4985523;28;21023;-77
2022/07/14 11:00:38;;;;;;;1.33;1.20;;;;;;;37.99;16.20;99445.22;4983543;28;20193;-78
2022/07/14 11:03:18;;;;;;;2.30;1.60;;;;;;;37.89;16.33;99431.56;4986622;28;20447;-79
2022/07/14 11:06:07;;;;;;;1.80;1.63;;;;;;;37.72;16.53;99425.59;4987335;28;20967;-78
2022/07/14 11:08:36;;;;;;;1.40;1.30;;;;;;;37.29;16.71;99430.66;4986791;28;20483;-78
2022/07/14 11:11:08;;;;;;;4.13;1.60;;;;;;;36.98;17.21;99439.72;4988569;28;20464;-78
2022/07/14 11:13:33;;;;;;;1.90;1.30;;;;;;;36.78;17.14;99437.00;4980244;28;20547;-78
2022/07/14 11:16:03;;;;;;;2.13;1.23;;;;;;;36.66;17.00;99425.53;4983556;28;20515;-77
2022/07/14 11:18:35;;;;;;;1.27;1.17;;;;;;;36.61;17.05;99414.56;4987224;28;20300;-77
2022/07/14 11:21:11;;;;;;;1.40;1.30;;;;;;;36.66;17.54;99422.78;4987133;28;20472;-78
2022/07/14 11:23:42;;;;;;;2.50;1.33;;;;;;;36.76;17.58;99420.03;4985530;28;20458;-78
2022/07/14 11:26:38;;;;;;;2.53;1.50;;;;;;;36.77;16.99;99403.34;4984646;28;20515;-78
2022/07/14 11:29:06;;;;;;;2.30;1.23;;;;;;;36.77;17.30;99416.19;4985765;28;20475;-77
2022/07/14 11:31:51;;;;;;;1.70;1.50;;;;;;;36.81;16.73;99406.34;4986079;28;21498;-77
2022/07/14 11:37:05;;;;;;;1.30;1.20;;;;;;;36.95;16.61;99398.41;4978292;28;20488;-78
2022/07/14 11:39:38;;;;;;;1.50;1.40;;;;;;;36.91;16.76;99392.63;4981457;28;20464;-77
2022/07/14 11:42:08;;;;;;;1.70;1.60;;;;;;;36.95;16.88;99390.19;4974414;28;20448;-78
2022/07/14 11:44:35;;;;;;;1.40;1.30;;;;;;;37.05;16.85;99384.72;4981441;28;20940;-78
2022/07/14 11:47:02;;;;;;;1.33;1.23;;;;;;;36.96;16.46;99378.94;4981717;28;20983;-76
2022/07/14 11:49:28;;;;;;;1.13;1.03;;;;;;;36.93;16.99;99384.16;4984987;28;21149;-77
2022/07/14 11:51:54;;;;;;;1.50;1.40;;;;;;;36.95;16.96;99377.31;4979753;28;20948;-79